Time;durP1;ratioP1;P1;durP2;ratioP2;P2;SDS_P1;SDS_P2;PMS_P1;PMS_P2;Temp;Humidity;BMP_temperature;BMP_pressure;BME280_temperature;BME280_humidity;BME280_pressure;Samples;Min_cycle;Max_cycle;Signal;HPM_P1;HPM_P2
2021/05/20 04:00:33;;;;;;;11.23;10.20;;;8.60;99.90;;;;;;5879771;23;20205;-69
2021/05/20 04:03:00;;;;;;;12.18;10.95;;;8.60;99.90;;;;;;4953087;28;20201;-69
2021/05/20 04:05:26;;;;;;;11.05;9.95;;;8.60;99.90;;;;;;4953714;29;20213;-69
2021/05/20 04:07:52;;;;;;;11.23;10.13;;;8.60;99.90;;;;;;4953728;28;20704;-70
2021/05/20 04:10:19;;;;;;;11.52;9.68;;;8.60;99.90;;;;;;4953735;28;20213;-70
2021/05/20 04:12:45;;;;;;;12.68;11.20;;;8.60;99.90;;;;;;4950724;29;20236;-70
2021/05/20 04:15:12;;;;;;;10.52;9.43;;;8.60;99.90;;;;;;4953568;29;20213;-70
2021/05/20 04:17:40;;;;;;;12.15;10.50;;;8.70;99.90;;;;;;4940668;29;20305;-70
2021/05/20 04:20:07;;;;;;;10.60;9.60;;;8.70;99.90;;;;;;4934757;29;20213;-68
2021/05/20 04:22:33;;;;;;;11.07;10.02;;;8.80;99.90;;;;;;4945908;29;20209;-68
2021/05/20 04:24:59;;;;;;;13.43;10.77;;;8.80;99.90;;;;;;4952995;29;20209;-69
2021/05/20 04:27:25;;;;;;;9.70;8.80;;;8.80;99.90;;;;;;4951875;29;20216;-68
2021/05/20 04:29:51;;;;;;;11.45;10.25;;;8.90;99.90;;;;;;4953244;29;20260;-69
2021/05/20 04:32:18;;;;;;;9.40;8.63;;;8.90;99.90;;;;;;4952400;29;20660;-68
2021/05/20 04:34:45;;;;;;;11.68;9.32;;;9.00;99.90;;;;;;4953541;29;20220;-70
2021/05/20 04:37:11;;;;;;;12.75;8.82;;;9.00;99.90;;;;;;4952266;29;20205;-70
2021/05/20 04:39:38;;;;;;;10.45;9.45;;;9.00;99.90;;;;;;4951140;29;20276;-69
2021/05/20 04:42:05;;;;;;;10.00;9.27;;;9.00;99.90;;;;;;4950536;28;20248;-69
2021/05/20 04:44:31;;;;;;;10.93;9.82;;;9.10;99.90;;;;;;4941695;29;20253;-71
2021/05/20 04:46:57;;;;;;;12.20;10.50;;;9.10;99.90;;;;;;4949683;29;20229;-69
2021/05/20 04:49:23;;;;;;;10.10;9.20;;;9.60;99.90;;;;;;4945119;29;20201;-70
2021/05/20 04:51:50;;;;;;;8.88;7.95;;;10.30;99.90;;;;;;4952328;29;20233;-69
2021/05/20 04:54:17;;;;;;;7.25;6.82;;;11.20;99.90;;;;;;4952905;29;20233;-69
2021/05/20 04:56:43;;;;;;;6.93;6.37;;;12.00;99.90;;;;;;4934285;29;20214;-69
2021/05/20 04:59:09;;;;;;;8.40;7.80;;;12.70;99.90;;;;;;4942406;29;20464;-69
2021/05/20 05:01:35;;;;;;;6.77;6.37;;;13.40;99.90;;;;;;4951957;29;20500;-69
2021/05/20 05:04:01;;;;;;;7.43;7.03;;;13.90;99.90;;;;;;4950620;29;20519;-70
2021/05/20 05:06:27;;;;;;;7.93;7.43;;;14.30;99.90;;;;;;4934008;29;20528;-70
2021/05/20 05:08:54;;;;;;;8.67;8.07;;;14.70;99.90;;;;;;4938192;29;20472;-70
2021/05/20 05:11:21;;;;;;;8.03;7.53;;;14.80;99.90;;;;;;4951042;29;20639;-70
2021/05/20 05:13:47;;;;;;;8.20;7.70;;;15.20;99.90;;;;;;4952561;29;21008;-70
2021/05/20 05:16:13;;;;;;;8.43;8.03;;;15.20;99.90;;;;;;4952141;29;20784;-70
2021/05/20 05:18:40;;;;;;;7.80;7.33;;;15.30;99.90;;;;;;4952474;29;20476;-70
2021/05/20 05:21:06;;;;;;;8.40;7.90;;;15.40;99.90;;;;;;4952000;28;20576;-70
2021/05/20 05:23:32;;;;;;;8.37;7.87;;;15.70;99.90;;;;;;4952263;29;20465;-70
2021/05/20 05:25:59;;;;;;;8.63;8.03;;;15.70;99.90;;;;;;4951522;29;20472;-70
2021/05/20 05:28:26;;;;;;;8.63;8.03;;;15.80;99.90;;;;;;4943117;29;20466;-70
2021/05/20 05:30:52;;;;;;;8.40;7.90;;;15.70;99.90;;;;;;4951631;29;20822;-70
2021/05/20 05:33:21;;;;;;;8.60;8.10;;;15.60;99.90;;;;;;4952282;29;21027;-70
2021/05/20 05:35:47;;;;;;;8.23;7.63;;;15.50;99.90;;;;;;4951600;29;20471;-69
2021/05/20 05:38:14;;;;;;;8.73;8.10;;;15.20;99.90;;;;;;4952468;29;20464;-69
2021/05/20 05:40:40;;;;;;;8.60;8.10;;;14.80;99.90;;;;;;4951281;29;21084;-68
2021/05/20 05:43:07;;;;;;;9.40;8.70;;;14.50;99.90;;;;;;4951952;29;20465;-69
2021/05/20 05:45:33;;;;;;;9.30;8.50;;;14.40;99.90;;;;;;4950498;29;20456;-71
2021/05/20 05:48:00;;;;;;;9.67;8.80;;;14.00;99.90;;;;;;4952744;29;20801;-71
2021/05/20 05:50:27;;;;;;;8.57;7.97;;;13.70;99.90;;;;;;4945650;29;20473;-69
2021/05/20 05:52:53;;;;;;;9.93;9.23;;;13.30;99.90;;;;;;4950605;29;20484;-70
2021/05/20 05:55:19;;;;;;;8.27;7.67;;;13.30;99.90;;;;;;4956072;29;21044;-68
2021/05/20 05:57:45;;;;;;;8.07;7.37;;;13.70;99.90;;;;;;4955983;28;20471;-71
2021/05/20 06:00:14;;;;;;;7.80;7.30;;;13.90;99.90;;;;;;4956187;29;20472;-70
2021/05/20 06:02:40;;;;;;;7.57;7.17;;;14.50;99.90;;;;;;4955448;28;20476;-70
2021/05/20 06:05:07;;;;;;;8.33;7.63;;;14.70;99.90;;;;;;4958514;29;20527;-70
2021/05/20 06:07:35;;;;;;;8.13;7.63;;;14.40;99.90;;;;;;4955852;29;20563;-70
2021/05/20 06:10:03;;;;;;;8.30;7.70;;;14.50;99.90;;;;;;4957627;29;20480;-71
2021/05/20 06:12:29;;;;;;;6.70;6.30;;;15.00;99.90;;;;;;4968784;29;20503;-71
2021/05/20 06:14:55;;;;;;;6.47;6.10;;;15.50;99.90;;;;;;4957340;29;20503;-71
2021/05/20 06:17:23;;;;;;;6.40;6.10;;;16.40;99.90;;;;;;4951226;29;20466;-71
2021/05/20 06:19:49;;;;;;;5.97;5.47;;;17.30;99.90;;;;;;4937215;29;20524;-71
2021/05/20 06:22:15;;;;;;;5.73;5.53;;;17.90;99.90;;;;;;4950524;29;20841;-69
2021/05/20 06:24:42;;;;;;;5.37;5.07;;;18.20;99.90;;;;;;4937179;29;20891;-70
2021/05/20 06:27:08;;;;;;;5.83;5.53;;;18.00;99.90;;;;;;4951890;28;20460;-69
2021/05/20 06:29:34;;;;;;;5.90;5.60;;;17.10;99.90;;;;;;4957031;29;20979;-69
2021/05/20 06:32:00;;;;;;;6.20;5.80;;;16.50;99.90;;;;;;4955094;29;20857;-70
2021/05/20 06:34:27;;;;;;;6.10;5.70;;;16.10;99.90;;;;;;4950535;29;20507;-71
2021/05/20 06:36:56;;;;;;;6.90;6.23;;;16.50;99.90;;;;;;4955248;29;20981;-71
2021/05/20 06:39:23;;;;;;;4.80;4.60;;;17.30;99.90;;;;;;4956439;28;20472;-70
2021/05/20 06:41:49;;;;;;;4.67;4.57;;;18.10;99.90;;;;;;4954512;28;20524;-71
2021/05/20 06:44:15;;;;;;;5.70;5.50;;;18.80;99.90;;;;;;4955223;29;20469;-70
2021/05/20 06:46:41;;;;;;;4.83;4.67;;;19.30;99.90;;;;;;4946916;29;20487;-70
2021/05/20 06:49:08;;;;;;;5.67;5.47;;;19.20;99.90;;;;;;4946856;29;20840;-70
2021/05/20 06:51:35;;;;;;;4.30;4.10;;;17.90;99.90;;;;;;4946722;29;21018;-71
2021/05/20 06:54:02;;;;;;;4.60;4.20;;;16.80;99.90;;;;;;4948871;28;20501;-71
2021/05/20 06:56:29;;;;;;;4.60;4.40;;;16.20;99.90;;;;;;4942888;29;20461;-70
2021/05/20 07:01:45;;;;;;;4.13;3.90;;;16.00;99.90;;;;;;4949166;29;20515;-71
2021/05/20 07:04:11;;;;;;;3.70;3.50;;;15.90;99.90;;;;;;4943811;29;20839;-70
2021/05/20 07:06:38;;;;;;;3.90;3.80;;;15.70;99.90;;;;;;4947809;29;20462;-73
2021/05/20 07:09:05;;;;;;;2.83;2.73;;;15.50;99.90;;;;;;4944853;29;20469;-72
2021/05/20 07:11:31;;;;;;;2.97;2.87;;;15.30;99.90;;;;;;4947953;28;20488;-73
2021/05/20 07:13:58;;;;;;;4.20;4.07;;;15.10;99.90;;;;;;4943893;29;20531;-73
2021/05/20 07:16:25;;;;;;;2.73;2.70;;;14.90;99.90;;;;;;4949557;29;20531;-74
2021/05/20 07:18:51;;;;;;;4.30;2.70;;;14.90;99.90;;;;;;4952366;29;20476;-73
2021/05/20 07:21:18;;;;;;;2.40;2.40;;;15.00;99.90;;;;;;4951193;29;20539;-73
2021/05/20 07:23:45;;;;;;;2.37;2.30;;;15.60;99.90;;;;;;4949377;29;20457;-74
2021/05/20 07:26:11;;;;;;;2.53;2.47;;;16.30;99.90;;;;;;4937691;29;20468;-74
2021/05/20 07:28:37;;;;;;;2.07;1.87;;;16.30;99.90;;;;;;4952945;29;20786;-74
2021/05/20 07:31:03;;;;;;;1.60;1.60;;;15.80;99.90;;;;;;4939782;28;20494;-73
2021/05/20 07:33:30;;;;;;;7.87;5.80;;;15.50;99.90;;;;;;4939691;29;20485;-75
2021/05/20 07:35:56;;;;;;;5.20;3.90;;;15.20;99.90;;;;;;4942316;29;20471;-75
2021/05/20 07:38:23;;;;;;;2.70;2.50;;;14.90;99.90;;;;;;4953386;29;20461;-72
2021/05/20 07:40:50;;;;;;;2.70;2.17;;;14.80;99.90;;;;;;4941618;29;20492;-70
2021/05/20 07:43:16;;;;;;;2.20;2.20;;;14.60;99.90;;;;;;4952548;29;20461;-70
2021/05/20 07:45:42;;;;;;;2.57;2.47;;;14.50;99.90;;;;;;4941920;29;20462;-70
2021/05/20 07:48:08;;;;;;;2.23;2.23;;;15.00;99.90;;;;;;4953701;29;20515;-69
2021/05/20 07:50:35;;;;;;;2.53;2.43;;;15.80;99.90;;;;;;4949392;29;20482;-68
2021/05/20 07:53:01;;;;;;;2.60;2.40;;;16.50;99.90;;;;;;4936071;29;20513;-68
2021/05/20 07:55:27;;;;;;;2.67;2.47;;;16.20;99.90;;;;;;4942453;29;20462;-68
2021/05/20 07:57:55;;;;;;;2.83;2.73;;;15.70;99.90;;;;;;4949477;29;20482;-70
2021/05/20 08:00:22;;;;;;;2.90;2.90;;;15.30;99.90;;;;;;4942392;29;20503;-69
2021/05/20 08:02:51;;;;;;;2.67;2.57;;;15.70;99.90;;;;;;4953333;28;20564;-69
2021/05/20 08:05:29;;;;;;;2.77;2.67;;;16.20;99.90;;;;;;4952159;29;20461;-68
2021/05/20 08:08:00;;;;;;;2.57;2.57;;;16.90;99.90;;;;;;4943143;29;20458;-68
2021/05/20 08:10:41;;;;;;;2.20;2.20;;;17.20;99.90;;;;;;4938340;29;20465;-69
2021/05/20 08:13:08;;;;;;;2.00;1.90;;;17.00;99.90;;;;;;4941131;28;20500;-67
2021/05/20 08:15:34;;;;;;;2.40;2.27;;;17.10;99.90;;;;;;4944329;29;21170;-68
2021/05/20 08:18:00;;;;;;;1.87;1.87;;;17.60;99.90;;;;;;4949057;29;20922;-68
2021/05/20 08:20:26;;;;;;;2.03;1.93;;;18.10;99.90;;;;;;4945226;28;21034;-67
2021/05/20 08:22:53;;;;;;;2.30;2.20;;;18.50;99.90;;;;;;4934015;29;20476;-68
2021/05/20 08:25:19;;;;;;;1.80;1.80;;;18.60;99.90;;;;;;4937318;29;20827;-68
2021/05/20 08:27:45;;;;;;;2.00;1.90;;;18.20;99.90;;;;;;4942743;29;20498;-68
2021/05/20 08:30:14;;;;;;;2.60;2.50;;;17.70;99.90;;;;;;4938672;29;20818;-71
2021/05/20 08:32:40;;;;;;;2.03;2.03;;;17.40;99.90;;;;;;4952557;29;20592;-71
2021/05/20 08:35:07;;;;;;;2.17;2.17;;;17.00;99.90;;;;;;4949526;29;21027;-71
2021/05/20 08:37:34;;;;;;;2.43;2.30;;;16.60;99.90;;;;;;4939373;29;20462;-71
2021/05/20 08:40:01;;;;;;;2.67;2.60;;;16.30;99.90;;;;;;4943070;29;20470;-71
2021/05/20 08:42:27;;;;;;;2.43;2.33;;;16.00;99.90;;;;;;4936919;29;20557;-71
2021/05/20 08:44:53;;;;;;;2.00;2.00;;;15.70;99.90;;;;;;4953890;29;20465;-70
2021/05/20 08:47:20;;;;;;;2.57;2.47;;;15.50;99.90;;;;;;4945515;28;20473;-71
2021/05/20 08:49:47;;;;;;;2.50;2.40;;;15.40;99.90;;;;;;4947058;29;20473;-70
2021/05/20 08:52:14;;;;;;;3.00;2.90;;;15.50;99.90;;;;;;4951422;28;20659;-71
2021/05/20 08:54:41;;;;;;;2.70;2.60;;;15.60;99.90;;;;;;4950501;29;20528;-70
2021/05/20 08:57:08;;;;;;;2.00;2.00;;;15.70;99.90;;;;;;4951987;29;20475;-70
2021/05/20 08:59:34;;;;;;;2.10;2.10;;;15.80;99.90;;;;;;4952607;29;20552;-70
2021/05/20 09:02:00;;;;;;;2.30;1.97;;;15.70;99.90;;;;;;4938531;29;20486;-71
2021/05/20 09:04:27;;;;;;;2.10;2.03;;;15.50;99.90;;;;;;4950783;29;20469;-72
2021/05/20 09:06:56;;;;;;;2.07;2.07;;;15.40;99.90;;;;;;4935341;29;20469;-72
2021/05/20 09:09:25;;;;;;;2.13;2.13;;;15.40;99.90;;;;;;4942097;29;20470;-72
2021/05/20 09:11:52;;;;;;;1.80;1.80;;;15.50;99.90;;;;;;4934101;29;20580;-71
2021/05/20 09:14:30;;;;;;;1.80;1.80;;;15.50;99.90;;;;;;4940134;29;20632;-70
2021/05/20 09:17:10;;;;;;;2.00;1.90;;;15.50;99.90;;;;;;4942180;29;20874;-70
2021/05/20 09:19:38;;;;;;;1.77;1.77;;;15.20;99.90;;;;;;4948650;29;20953;-71
2021/05/20 09:22:05;;;;;;;1.70;1.60;;;15.00;99.90;;;;;;4949291;29;20640;-72
2021/05/20 09:24:48;;;;;;;2.10;1.97;;;15.10;99.90;;;;;;4949257;29;20539;-70
2021/05/20 09:27:26;;;;;;;3.40;3.20;;;15.30;99.90;;;;;;4942702;29;20465;-69
2021/05/20 09:30:15;;;;;;;2.70;2.50;;;15.60;99.90;;;;;;4944846;29;20543;-70
2021/05/20 09:32:43;;;;;;;4.43;2.00;;;15.70;99.90;;;;;;4955474;28;20547;-69
2021/05/20 09:35:11;;;;;;;1.90;1.80;;;15.70;99.90;;;;;;4945762;29;20493;-69
2021/05/20 09:37:51;;;;;;;2.87;2.77;;;15.60;99.90;;;;;;4951420;29;20801;-70
2021/05/20 09:40:19;;;;;;;2.37;2.27;;;15.60;99.90;;;;;;4946192;28;20518;-70
2021/05/20 09:42:47;;;;;;;2.03;1.93;;;15.50;99.90;;;;;;4954547;29;20476;-70
2021/05/20 09:45:15;;;;;;;2.13;2.07;;;15.60;99.90;;;;;;4952253;29;20564;-70
2021/05/20 09:47:42;;;;;;;3.53;3.43;;;15.80;99.90;;;;;;4946343;29;20921;-69
2021/05/20 09:50:10;;;;;;;2.63;2.53;;;15.80;99.90;;;;;;4949924;29;20479;-71
2021/05/20 09:52:37;;;;;;;2.23;2.13;;;15.80;99.90;;;;;;4951276;29;20464;-71
2021/05/20 09:55:17;;;;;;;2.47;2.27;;;15.70;99.90;;;;;;4946225;29;20833;-70
2021/05/20 09:57:44;;;;;;;2.63;2.57;;;15.60;99.90;;;;;;4952280;29;20580;-70
2021/05/20 10:00:12;;;;;;;2.93;2.70;;;15.50;99.90;;;;;;4952166;29;21181;-73
2021/05/20 10:02:39;;;;;;;2.00;2.00;;;15.40;99.90;;;;;;4949289;29;20477;-70
2021/05/20 10:05:34;;;;;;;2.77;2.60;;;15.50;99.90;;;;;;4944478;29;20562;-70
2021/05/20 10:08:03;;;;;;;2.80;2.70;;;15.70;99.90;;;;;;4911349;29;20476;-70
2021/05/20 10:10:30;;;;;;;2.60;2.50;;;15.90;99.90;;;;;;4936365;28;20833;-70
2021/05/20 10:12:57;;;;;;;2.40;2.20;;;16.00;99.90;;;;;;4948843;29;20531;-70
2021/05/20 10:15:24;;;;;;;2.20;2.10;;;16.00;99.90;;;;;;4954637;29;20464;-71
2021/05/20 10:17:51;;;;;;;2.13;1.97;;;15.80;99.90;;;;;;4955043;29;20469;-71
2021/05/20 10:20:19;;;;;;;1.87;1.87;;;15.60;99.90;;;;;;4955967;29;20529;-71
2021/05/20 10:22:47;;;;;;;3.40;2.60;;;15.40;99.90;;;;;;4955458;28;20535;-72
2021/05/20 10:25:14;;;;;;;2.00;2.00;;;15.20;99.90;;;;;;4944091;29;20462;-72
2021/05/20 10:27:41;;;;;;;2.27;2.23;;;15.10;99.90;;;;;;4935579;29;20461;-71
2021/05/20 10:30:10;;;;;;;2.57;2.37;;;15.30;99.90;;;;;;4938357;29;20473;-72
2021/05/20 10:32:39;;;;;;;4.83;3.23;;;15.50;99.90;;;;;;4955533;29;20472;-72
2021/05/20 10:35:09;;;;;;;3.33;2.33;;;15.70;99.90;;;;;;4955915;29;20489;-72
2021/05/20 10:37:40;;;;;;;1.57;1.47;;;16.00;99.90;;;;;;4955293;28;20488;-72
2021/05/20 10:40:22;;;;;;;2.20;2.10;;;16.20;99.90;;;;;;4955299;29;20559;-71
2021/05/20 10:42:51;;;;;;;2.00;1.90;;;16.40;99.90;;;;;;4934951;29;20465;-72
2021/05/20 10:45:19;;;;;;;1.60;1.60;;;16.40;99.90;;;;;;4936232;29;20454;-72
2021/05/20 10:48:20;;;;;;;2.20;2.00;;;16.20;99.90;;;;;;4936211;29;20825;-73
2021/05/20 10:51:12;;;;;;;2.47;2.33;;;15.80;99.90;;;;;;4936069;29;20858;-72
2021/05/20 10:54:00;;;;;;;2.20;2.10;;;15.50;99.90;;;;;;4936499;29;20933;-72
2021/05/20 10:56:57;;;;;;;2.70;2.60;;;15.30;99.90;;;;;;4935701;29;20469;-73
2021/05/20 10:59:43;;;;;;;3.30;3.10;;;15.10;99.90;;;;;;4936465;29;20512;-72
2021/05/20 11:02:50;;;;;;;3.63;3.40;;;15.10;99.90;;;;;;4935776;29;20501;-72
2021/05/20 11:05:55;;;;;;;2.90;2.80;;;15.40;99.90;;;;;;4936441;29;20486;-72
2021/05/20 11:08:58;;;;;;;2.53;2.53;;;16.00;99.90;;;;;;4936194;29;20540;-69
2021/05/20 11:11:56;;;;;;;2.90;2.80;;;16.40;99.90;;;;;;4935352;29;20481;-68
2021/05/20 11:14:40;;;;;;;2.60;2.50;;;16.70;99.90;;;;;;4946279;29;20539;-68
2021/05/20 11:17:37;;;;;;;3.53;2.60;;;16.80;99.90;;;;;;4955447;29;20549;-68
2021/05/20 11:20:42;;;;;;;3.50;2.73;;;16.90;99.90;;;;;;4943398;28;20539;-70
2021/05/20 11:23:23;;;;;;;2.40;2.30;;;17.10;99.90;;;;;;4955147;28;20963;-69
2021/05/20 11:26:00;;;;;;;3.83;3.43;;;16.80;99.90;;;;;;4954679;29;20464;-69
2021/05/20 11:28:26;;;;;;;3.30;3.30;;;16.70;99.90;;;;;;4954378;29;20473;-69
2021/05/20 11:30:57;;;;;;;2.73;2.63;;;16.50;99.90;;;;;;4953298;29;20480;-69
2021/05/20 11:33:25;;;;;;;2.90;2.90;;;16.20;99.90;;;;;;4954482;29;20846;-68
2021/05/20 11:36:09;;;;;;;4.13;3.83;;;15.80;99.90;;;;;;4946999;28;20481;-68
2021/05/20 11:38:35;;;;;;;3.93;3.73;;;15.40;99.90;;;;;;4945572;29;20517;-69
2021/05/20 11:41:13;;;;;;;3.90;3.77;;;15.20;99.90;;;;;;4948925;29;20826;-68
2021/05/20 11:43:41;;;;;;;3.50;3.40;;;15.20;99.90;;;;;;4950792;29;20829;-72
2021/05/20 11:46:21;;;;;;;3.73;3.70;;;15.20;99.90;;;;;;4939429;29;20557;-72
2021/05/20 11:48:58;;;;;;;4.37;4.20;;;15.30;99.90;;;;;;4938561;28;20892;-72
2021/05/20 11:51:38;;;;;;;3.60;3.40;;;15.40;99.90;;;;;;4951049;29;20567;-72
2021/05/20 11:54:08;;;;;;;3.80;3.70;;;15.60;99.90;;;;;;4944697;29;20484;-73
2021/05/20 11:56:44;;;;;;;3.57;3.47;;;15.80;99.90;;;;;;4945919;29;20500;-71
2021/05/20 11:59:10;;;;;;;3.57;3.47;;;15.70;99.90;;;;;;4949783;28;20563;-72
2021/05/20 12:01:37;;;;;;;3.30;3.20;;;15.80;99.90;;;;;;4937396;29;20493;-72
2021/05/20 12:04:05;;;;;;;3.80;3.60;;;15.90;99.90;;;;;;4946525;29;20464;-72
2021/05/20 12:06:32;;;;;;;3.73;3.53;;;16.00;99.90;;;;;;4947340;29;20526;-70
2021/05/20 12:09:11;;;;;;;3.87;3.77;;;16.00;99.90;;;;;;4946467;29;20461;-71
2021/05/20 12:11:39;;;;;;;3.87;3.77;;;16.20;99.90;;;;;;4950281;28;21091;-70
2021/05/20 12:14:37;;;;;;;3.37;3.27;;;16.30;99.90;;;;;;4943870;29;20493;-71
2021/05/20 12:17:07;;;;;;;3.80;3.70;;;16.40;99.90;;;;;;4946910;29;20467;-70
2021/05/20 12:19:36;;;;;;;3.50;3.30;;;16.40;99.90;;;;;;4964448;29;20543;-70
2021/05/20 12:22:06;;;;;;;2.63;2.63;;;16.40;99.90;;;;;;4948235;29;20499;-69
2021/05/20 12:24:34;;;;;;;2.90;2.70;;;16.40;99.90;;;;;;4946958;29;20484;-72
2021/05/20 12:27:08;;;;;;;2.47;2.37;;;16.40;99.90;;;;;;4949568;28;20468;-70
2021/05/20 12:29:35;;;;;;;1.93;1.93;;;16.40;99.90;;;;;;4940218;29;20458;-71
2021/05/20 12:32:02;;;;;;;2.93;2.70;;;16.30;99.90;;;;;;4934550;29;20477;-73
2021/05/20 12:34:29;;;;;;;3.60;3.30;;;16.20;99.90;;;;;;4934266;29;20485;-71
2021/05/20 12:37:06;;;;;;;3.10;3.00;;;15.90;99.90;;;;;;4945676;29;20523;-71
2021/05/20 12:39:32;;;;;;;3.60;3.40;;;15.50;99.90;;;;;;4952658;28;20472;-68
2021/05/20 12:41:59;;;;;;;3.40;3.30;;;15.40;99.90;;;;;;4952269;29;20492;-70
2021/05/20 12:44:25;;;;;;;3.50;3.17;;;15.40;99.90;;;;;;4952265;29;20807;-69
2021/05/20 12:46:52;;;;;;;3.50;3.40;;;15.60;99.90;;;;;;4952918;29;20468;-69
2021/05/20 12:49:23;;;;;;;3.70;3.50;;;15.80;99.90;;;;;;4952403;29;20483;-70
2021/05/20 12:51:58;;;;;;;3.23;3.10;;;16.10;99.90;;;;;;4950846;29;20547;-70
2021/05/20 12:54:29;;;;;;;3.17;3.10;;;16.30;99.90;;;;;;4935822;29;20515;-69
2021/05/20 12:57:13;;;;;;;3.03;3.00;;;16.60;99.90;;;;;;4947707;29;20465;-69
2021/05/20 12:59:41;;;;;;;2.60;2.60;;;16.80;99.90;;;;;;4945606;28;20826;-71
2021/05/20 13:02:09;;;;;;;3.27;3.17;;;17.00;99.90;;;;;;4937731;29;20484;-71
2021/05/20 13:04:37;;;;;;;2.77;2.70;;;17.20;99.90;;;;;;4943340;29;20489;-70
2021/05/20 13:07:06;;;;;;;3.27;3.13;;;17.20;99.90;;;;;;4947192;28;20531;-71
2021/05/20 13:09:33;;;;;;;2.70;2.50;;;17.00;99.90;;;;;;4951721;29;21000;-70
2021/05/20 13:12:01;;;;;;;2.60;2.50;;;16.90;99.90;;;;;;4946411;28;20492;-71
2021/05/20 13:14:33;;;;;;;1.97;1.90;;;17.00;99.90;;;;;;4951163;28;20701;-72
2021/05/20 13:17:17;;;;;;;1.77;1.77;;;17.00;99.90;;;;;;4952264;29;20555;-71
2021/05/20 13:22:28;;;;;;;2.67;2.50;;;16.80;99.90;;;;;;4951270;29;20491;-69
2021/05/20 13:24:56;;;;;;;1.80;1.80;;;16.90;99.90;;;;;;4945507;29;20452;-70
2021/05/20 13:27:24;;;;;;;1.77;1.77;;;16.90;99.90;;;;;;4945897;28;20908;-74
2021/05/20 13:29:55;;;;;;;1.67;1.57;;;17.00;99.90;;;;;;4952025;29;20531;-71
2021/05/20 13:32:28;;;;;;;1.30;1.20;;;17.10;99.90;;;;;;4950804;29;20817;-69
2021/05/20 13:34:54;;;;;;;1.60;1.30;;;17.20;99.90;;;;;;4948139;29;20484;-69
2021/05/20 13:37:21;;;;;;;1.13;1.13;;;17.40;99.90;;;;;;4947456;29;20468;-71
2021/05/20 13:39:48;;;;;;;1.20;1.20;;;17.50;99.90;;;;;;4943602;29;20465;-70
2021/05/20 13:42:14;;;;;;;1.30;1.30;;;17.50;99.90;;;;;;4948379;29;20516;-71
2021/05/20 13:44:46;;;;;;;1.47;1.47;;;17.40;99.90;;;;;;4960948;29;20471;-71
2021/05/20 13:47:13;;;;;;;1.40;1.40;;;17.40;99.90;;;;;;4961355;29;20811;-70
2021/05/20 13:49:42;;;;;;;1.40;1.40;;;17.30;99.90;;;;;;4961536;29;20480;-71
2021/05/20 13:52:11;;;;;;;1.90;1.80;;;17.00;99.90;;;;;;4959091;29;20900;-71
2021/05/20 13:54:38;;;;;;;2.17;2.07;;;16.90;99.90;;;;;;4945220;29;20257;-71
2021/05/20 13:57:05;;;;;;;2.30;2.20;;;16.80;99.90;;;;;;4954530;28;20487;-71
2021/05/20 13:59:31;;;;;;;2.13;2.13;;;16.80;99.90;;;;;;4961279;29;20464;-72
2021/05/20 14:01:59;;;;;;;2.00;1.67;;;16.90;99.90;;;;;;4958366;29;20496;-71
2021/05/20 14:04:34;;;;;;;1.90;1.80;;;17.00;99.90;;;;;;4954906;29;20456;-72
2021/05/20 14:07:00;;;;;;;2.37;2.20;;;17.30;99.90;;;;;;4954849;28;20804;-72
2021/05/20 14:09:27;;;;;;;2.30;2.23;;;17.30;99.90;;;;;;4954141;29;20465;-71
2021/05/20 14:11:53;;;;;;;2.50;2.30;;;17.30;99.90;;;;;;4953159;29;20542;-71
2021/05/20 14:14:20;;;;;;;1.80;1.80;;;17.30;99.90;;;;;;4954453;29;20507;-72
2021/05/20 14:16:47;;;;;;;2.03;2.00;;;17.20;99.90;;;;;;4953685;28;20939;-70
2021/05/20 14:19:13;;;;;;;1.93;1.93;;;17.20;99.90;;;;;;4955917;29;20510;-73
2021/05/20 14:21:39;;;;;;;2.30;2.20;;;17.20;99.90;;;;;;4956463;29;20480;-72
2021/05/20 14:24:07;;;;;;;2.03;2.03;;;17.30;99.90;;;;;;4947317;29;20462;-72
2021/05/20 14:26:33;;;;;;;1.90;1.90;;;17.40;99.90;;;;;;4941232;29;20465;-71
2021/05/20 14:28:59;;;;;;;1.93;1.93;;;17.40;99.90;;;;;;4956279;29;20514;-71
2021/05/20 14:31:26;;;;;;;1.60;1.50;;;17.30;99.90;;;;;;4955493;29;20480;-73
2021/05/20 14:33:52;;;;;;;2.10;2.00;;;17.30;99.90;;;;;;4955876;29;20576;-72
2021/05/20 14:36:18;;;;;;;1.70;1.70;;;17.30;99.90;;;;;;4956230;29;20468;-71
2021/05/20 14:38:45;;;;;;;4.33;1.63;;;17.40;99.90;;;;;;4955584;29;20969;-71
2021/05/20 14:41:11;;;;;;;1.93;1.93;;;17.40;99.90;;;;;;4954855;29;20476;-71
2021/05/20 14:43:37;;;;;;;1.80;1.80;;;17.60;99.90;;;;;;4955326;29;20495;-72
2021/05/20 14:46:03;;;;;;;2.33;2.33;;;17.70;99.90;;;;;;4956073;29;20472;-71
2021/05/20 14:48:32;;;;;;;2.73;2.73;;;17.60;99.90;;;;;;4957793;29;20580;-70
2021/05/20 14:51:01;;;;;;;2.30;2.30;;;17.30;99.90;;;;;;4957246;29;20490;-71
2021/05/20 14:53:30;;;;;;;2.73;2.57;;;17.30;99.90;;;;;;4961545;29;20460;-70
2021/05/20 14:56:03;;;;;;;2.50;2.50;;;17.40;99.90;;;;;;4960234;29;20879;-71
2021/05/20 15:04:57;;;;;;;3.40;3.33;;;17.60;99.90;;;;;;4955484;29;20553;-68
2021/05/20 15:07:06;;;;;;;2.63;2.53;;;17.60;99.90;;;;;;4950667;29;20464;-68
2021/05/20 15:09:40;;;;;;;2.60;2.60;;;17.30;99.90;;;;;;4954063;29;20472;-69
2021/05/20 15:12:11;;;;;;;5.50;2.47;;;17.20;99.90;;;;;;4952910;29;20495;-68
2021/05/20 15:14:40;;;;;;;3.00;1.70;;;17.40;99.90;;;;;;4954347;28;20512;-68
2021/05/20 15:17:13;;;;;;;2.70;2.60;;;17.60;99.90;;;;;;4951114;29;21040;-68
2021/05/20 15:19:40;;;;;;;2.30;2.30;;;18.00;99.90;;;;;;4954038;29;20870;-69
2021/05/20 15:22:07;;;;;;;2.20;2.20;;;18.10;99.90;;;;;;4953291;29;20485;-68
2021/05/20 15:24:33;;;;;;;2.40;2.40;;;18.00;99.90;;;;;;4944344;29;20485;-70
2021/05/20 15:27:01;;;;;;;2.30;2.10;;;17.90;99.90;;;;;;4951102;29;20944;-68
2021/05/20 15:29:27;;;;;;;2.63;2.00;;;17.80;99.90;;;;;;4939902;29;20544;-68
2021/05/20 15:31:53;;;;;;;2.30;2.30;;;17.60;99.90;;;;;;4944509;29;20832;-67
2021/05/20 15:34:20;;;;;;;2.37;2.37;;;17.50;99.90;;;;;;4953563;29;20499;-68
2021/05/20 15:36:48;;;;;;;2.23;2.13;;;17.50;99.90;;;;;;4946575;29;20530;-68
2021/05/20 15:39:14;;;;;;;2.13;2.13;;;17.80;99.90;;;;;;4946166;29;20698;-68
2021/05/20 15:41:40;;;;;;;1.50;1.50;;;18.20;99.90;;;;;;4943237;29;20473;-68
2021/05/20 15:44:08;;;;;;;1.50;1.40;;;18.60;99.90;;;;;;4952868;29;20519;-68
2021/05/20 15:46:36;;;;;;;2.27;1.80;;;18.70;99.90;;;;;;4949308;28;21029;-70
2021/05/20 15:51:48;;;;;;;2.20;2.10;;;18.30;99.90;;;;;;4949671;29;20575;-69
2021/05/20 15:54:15;;;;;;;1.70;1.70;;;17.90;99.90;;;;;;4950165;29;20481;-70
2021/05/20 15:56:41;;;;;;;2.20;2.10;;;17.80;99.90;;;;;;4944460;29;20494;-70
2021/05/20 15:59:07;;;;;;;4.27;2.20;;;17.70;99.90;;;;;;4946815;29;20890;-68
2021/05/20 16:01:35;;;;;;;2.10;2.00;;;17.90;99.90;;;;;;4948352;29;20860;-70
2021/05/20 16:04:01;;;;;;;1.90;1.80;;;17.90;99.90;;;;;;4944019;29;20512;-69
2021/05/20 16:06:29;;;;;;;1.50;1.50;;;17.90;99.90;;;;;;4957400;29;20479;-70
2021/05/20 16:08:59;;;;;;;2.30;2.10;;;17.80;99.90;;;;;;4960339;29;20470;-69
2021/05/20 16:11:32;;;;;;;1.37;1.37;;;17.80;99.90;;;;;;4966351;29;20484;-71
2021/05/20 16:14:05;;;;;;;1.83;1.83;;;17.70;99.90;;;;;;4957343;29;20496;-70
2021/05/20 16:16:31;;;;;;;1.60;1.50;;;17.70;99.90;;;;;;4952356;29;20525;-71
2021/05/20 16:18:57;;;;;;;1.87;1.77;;;17.60;99.90;;;;;;4947489;29;20485;-69
2021/05/20 16:21:26;;;;;;;1.67;1.67;;;17.70;99.90;;;;;;4949862;29;20507;-70
2021/05/20 16:24:06;;;;;;;1.80;1.80;;;17.80;99.90;;;;;;4944916;29;20457;-69
2021/05/20 16:37:30;;;;;;;1.77;1.77;;;17.80;99.90;;;;;;4940726;29;20548;-70
2021/05/20 16:39:56;;;;;;;2.00;2.00;;;17.70;99.90;;;;;;4949244;28;20528;-70
2021/05/20 16:42:23;;;;;;;1.80;1.70;;;17.60;99.90;;;;;;4947705;29;20496;-70
2021/05/20 16:44:49;;;;;;;3.40;2.47;;;17.60;99.90;;;;;;4948859;29;20492;-71
2021/05/20 16:47:16;;;;;;;2.00;2.00;;;17.50;99.90;;;;;;4952928;29;20535;-72
2021/05/20 16:49:42;;;;;;;1.87;1.87;;;17.60;99.90;;;;;;4942952;28;20969;-71
2021/05/20 16:52:08;;;;;;;1.50;1.50;;;17.50;99.90;;;;;;4948162;29;20489;-71
2021/05/20 16:54:37;;;;;;;2.20;2.10;;;17.40;99.90;;;;;;4953467;29;20484;-70
2021/05/20 16:57:08;;;;;;;1.73;1.73;;;17.30;99.90;;;;;;4950164;29;20472;-70
2021/05/20 16:59:35;;;;;;;1.97;1.73;;;17.20;99.90;;;;;;4946031;29;20500;-72
2021/05/20 17:02:01;;;;;;;2.27;2.07;;;17.10;99.90;;;;;;4948154;29;20502;-70
2021/05/20 17:04:28;;;;;;;2.10;2.10;;;17.10;99.90;;;;;;4946070;28;20540;-70
2021/05/20 17:06:54;;;;;;;1.60;1.60;;;17.00;99.90;;;;;;4941024;29;20881;-71
2021/05/20 17:09:20;;;;;;;2.07;1.87;;;17.00;99.90;;;;;;4942984;29;20469;-71
2021/05/20 17:11:46;;;;;;;1.90;1.90;;;17.00;99.90;;;;;;4943136;29;20574;-71
2021/05/20 17:14:13;;;;;;;4.00;1.70;;;16.90;99.90;;;;;;4936337;29;20493;-71
2021/05/20 17:16:40;;;;;;;1.80;1.80;;;16.90;99.90;;;;;;4938563;29;20512;-70
2021/05/20 17:19:06;;;;;;;1.50;1.50;;;16.90;99.90;;;;;;4953479;29;20469;-72
2021/05/20 17:21:34;;;;;;;2.37;2.27;;;16.90;99.90;;;;;;4948142;29;20493;-71